Time;durP1;ratioP1;P1;durP2;ratioP2;P2;SDS_P1;SDS_P2;PMS_P1;PMS_P2;Temp;Humidity;BMP_temperature;BMP_pressure;BME280_temperature;BME280_humidity;BME280_pressure;Samples;Min_cycle;Max_cycle;Signal;HPM_P1;HPM_P2
2022/11/14 07:35:01;;;;;;;14.70;9.85;;;4.20;99.90;;;;;;10289537;23;19923;-77
2022/11/14 07:40:03;;;;;;;15.52;9.80;;;4.30;99.90;;;;;;10176177;29;20115;-78
2022/11/14 07:45:06;;;;;;;15.15;9.35;;;4.00;99.90;;;;;;10177700;29;20092;-81
2022/11/14 07:50:10;;;;;;;14.40;9.68;;;4.10;99.90;;;;;;10172885;29;20056;-79
2022/11/14 07:55:12;;;;;;;13.60;9.73;;;4.30;99.90;;;;;;10174514;29;20052;-78
2022/11/14 08:00:15;;;;;;;17.52;11.15;;;4.20;99.90;;;;;;10174511;29;20056;-76
2022/11/14 08:05:19;;;;;;;17.80;9.95;;;4.40;99.90;;;;;;10167328;29;20056;-78
2022/11/14 08:10:21;;;;;;;15.52;11.05;;;4.40;99.90;;;;;;10169453;29;20107;-80
2022/11/14 08:15:23;;;;;;;15.05;9.95;;;4.60;99.90;;;;;;10165992;29;20087;-78
2022/11/14 08:20:27;;;;;;;16.10;10.73;;;4.70;99.90;;;;;;10170992;29;20146;-76
2022/11/14 08:25:30;;;;;;;18.40;11.32;;;4.50;99.90;;;;;;10168982;29;20059;-77
2022/11/14 08:30:32;;;;;;;16.25;10.85;;;4.40;99.90;;;;;;10169827;29;20426;-76
2022/11/14 08:35:35;;;;;;;19.15;11.73;;;4.40;99.90;;;;;;10169736;29;20080;-78
2022/11/14 08:40:37;;;;;;;16.45;10.77;;;4.60;99.90;;;;;;10176978;29;20099;-76
2022/11/14 08:45:39;;;;;;;16.05;10.23;;;4.70;99.90;;;;;;10161923;29;20115;-79
2022/11/14 08:50:42;;;;;;;17.75;10.32;;;4.80;99.90;;;;;;10138055;29;20076;-78
2022/11/14 08:55:44;;;;;;;13.60;8.68;;;4.90;99.90;;;;;;10143710;29;20052;-79
2022/11/14 09:00:46;;;;;;;14.27;8.88;;;5.10;99.90;;;;;;10140875;29;20060;-76
2022/11/14 09:05:53;;;;;;;14.07;8.32;;;5.30;99.90;;;;;;10137762;29;20147;-79
2022/11/14 09:10:57;;;;;;;17.88;10.73;;;5.70;99.90;;;;;;10172273;29;20095;-75
2022/11/14 09:15:59;;;;;;;18.55;12.45;;;5.70;99.90;;;;;;10174086;29;20064;-78
2022/11/14 09:21:04;;;;;;;22.08;13.77;;;5.80;99.90;;;;;;10174561;29;20056;-78
2022/11/14 09:26:07;;;;;;;21.45;12.13;;;5.70;99.90;;;;;;10178466;29;20107;-77
2022/11/14 09:31:12;;;;;;;9.27;5.10;;;5.90;99.90;;;;;;10162669;29;20111;-77
2022/11/14 09:36:17;;;;;;;6.40;2.88;;;6.10;99.90;;;;;;10174523;29;20056;-78
2022/11/14 09:41:27;;;;;;;9.15;4.78;;;6.70;99.90;;;;;;10174759;29;20135;-79
2022/11/14 09:46:34;;;;;;;4.45;2.30;;;7.00;99.90;;;;;;10174596;29;20056;-78
2022/11/14 09:51:49;;;;;;;6.13;2.10;;;7.40;99.90;;;;;;10172279;29;20048;-80
2022/11/14 09:56:51;;;;;;;2.83;1.23;;;7.60;99.90;;;;;;10172761;29;20509;-78
2022/11/14 10:02:02;;;;;;;3.63;1.33;;;8.00;99.90;;;;;;10173607;29;20147;-80
2022/11/14 10:07:20;;;;;;;2.95;1.35;;;8.20;99.90;;;;;;10150965;29;20056;-77
2022/11/14 10:12:26;;;;;;;2.33;1.00;;;8.50;99.90;;;;;;10134761;29;20087;-78
2022/11/14 10:17:59;;;;;;;2.60;1.00;;;8.90;99.90;;;;;;10131945;29;20055;-77
2022/11/14 10:23:19;;;;;;;2.25;0.80;;;9.10;99.90;;;;;;10134444;29;20052;-77
2022/11/14 10:28:44;;;;;;;10.13;4.63;;;9.30;99.90;;;;;;10134740;29;20534;-80
2022/11/14 10:33:58;;;;;;;8.57;3.05;;;9.40;99.90;;;;;;10134663;29;20203;-78
2022/11/14 10:39:10;;;;;;;2.38;0.90;;;9.60;99.90;;;;;;10133138;29;20108;-78
2022/11/14 10:44:17;;;;;;;2.90;1.00;;;9.80;99.90;;;;;;10133731;29;20080;-79
2022/11/14 10:49:22;;;;;;;3.10;1.10;;;9.90;99.90;;;;;;10139900;29;20083;-79
2022/11/14 10:54:32;;;;;;;3.90;1.10;;;10.10;99.90;;;;;;10150454;29;20092;-78
2022/11/14 10:59:35;;;;;;;2.10;0.90;;;10.20;99.90;;;;;;10132454;29;20049;-78
2022/11/14 11:04:38;;;;;;;2.17;1.13;;;10.40;99.90;;;;;;10132690;29;20063;-79
2022/11/14 11:15:16;;;;;;;2.38;1.02;;;10.70;99.90;;;;;;10141798;29;20095;-80
2022/11/14 11:20:34;;;;;;;2.17;0.80;;;10.80;99.90;;;;;;10152051;29;20056;-78
2022/11/14 11:25:40;;;;;;;2.25;0.90;;;10.90;99.90;;;;;;10133129;29;20060;-78
2022/11/14 11:30:56;;;;;;;2.95;1.15;;;11.00;99.90;;;;;;10131695;29;20455;-78
2022/11/14 11:36:04;;;;;;;2.60;1.08;;;11.10;99.90;;;;;;10132869;29;20064;-78
2022/11/14 11:41:21;;;;;;;2.90;1.08;;;11.20;99.90;;;;;;10131640;29;20065;-79
2022/11/14 11:46:32;;;;;;;2.72;1.00;;;11.30;99.90;;;;;;10135373;29;20486;-80
2022/11/14 11:51:40;;;;;;;9.48;4.20;;;11.40;99.90;;;;;;10170361;29;20522;-77
2022/11/14 11:56:48;;;;;;;3.67;1.25;;;11.40;99.90;;;;;;10170502;29;20059;-77
2022/11/14 12:01:51;;;;;;;2.90;1.00;;;11.50;99.90;;;;;;10169153;29;20159;-77
2022/11/14 12:07:08;;;;;;;3.65;0.95;;;11.60;99.90;;;;;;10170007;29;20501;-77
2022/11/14 12:12:21;;;;;;;2.42;1.00;;;11.60;99.90;;;;;;10168622;29;20478;-77
2022/11/14 12:18:14;;;;;;;2.75;1.20;;;11.80;99.90;;;;;;10167478;29;20083;-78
2022/11/14 12:24:07;;;;;;;3.25;1.17;;;11.90;99.90;;;;;;10157649;29;20502;-77
2022/11/14 12:29:55;;;;;;;2.65;1.20;;;12.00;99.90;;;;;;10142304;29;20044;-75
2022/11/14 12:34:59;;;;;;;3.65;1.17;;;12.30;99.90;;;;;;10141571;29;20501;-76
2022/11/14 12:40:06;;;;;;;3.30;1.30;;;12.50;99.90;;;;;;10131479;29;20388;-76
2022/11/14 12:46:02;;;;;;;3.17;1.40;;;12.80;99.90;;;;;;10155012;29;20048;-77
2022/11/14 12:51:50;;;;;;;3.50;1.20;;;13.40;99.90;;;;;;10163892;29;20049;-79
2022/11/14 12:57:00;;;;;;;6.18;2.75;;;14.30;99.20;;;;;;10126516;29;20406;-78
2022/11/14 13:02:53;;;;;;;3.58;1.42;;;15.10;97.50;;;;;;10165460;29;20052;-79
2022/11/14 13:08:20;;;;;;;5.40;1.50;;;15.80;95.60;;;;;;10169127;29;20521;-78
2022/11/14 13:24:18;;;;;;;2.92;1.30;;;20.80;80.30;;;;;;10173362;29;20052;-77
2022/11/14 13:30:00;;;;;;;3.45;1.45;;;23.50;66.60;;;;;;10175802;29;20048;-77
2022/11/14 13:35:13;;;;;;;3.05;1.13;;;26.40;57.60;;;;;;10175126;29;20123;-75
2022/11/14 13:40:29;;;;;;;4.65;1.40;;;27.80;52.50;;;;;;10141400;29;20506;-75
2022/11/14 13:45:53;;;;;;;4.78;1.50;;;29.50;49.40;;;;;;10137787;29;20116;-76
2022/11/14 13:51:00;;;;;;;2.88;1.45;;;29.60;46.90;;;;;;10135903;29;20489;-77
2022/11/14 13:56:25;;;;;;;3.03;1.20;;;30.10;46.90;;;;;;10135909;29;20048;-75
2022/11/14 14:01:47;;;;;;;3.70;1.40;;;30.60;46.10;;;;;;10136997;29;20514;-75
2022/11/14 14:07:04;;;;;;;2.90;1.30;;;30.10;46.10;;;;;;10135593;29;20140;-76
2022/11/14 14:12:35;;;;;;;3.70;1.50;;;29.40;45.30;;;;;;10141476;29;20107;-76
2022/11/14 14:17:50;;;;;;;3.83;1.35;;;29.40;45.80;;;;;;10174215;29;20440;-76
2022/11/14 14:23:02;;;;;;;3.20;1.65;;;27.40;47.20;;;;;;10178281;29;20044;-78
2022/11/14 14:28:18;;;;;;;3.25;1.50;;;25.00;50.10;;;;;;10158707;29;20057;-77
2022/11/14 14:33:21;;;;;;;3.38;1.40;;;24.50;52.20;;;;;;10187778;29;20091;-75
2022/11/14 14:38:25;;;;;;;3.22;1.50;;;25.20;51.50;;;;;;10174981;29;20118;-77
2022/11/14 14:43:33;;;;;;;3.67;1.50;;;25.30;51.00;;;;;;10152867;29;20474;-75
2022/11/14 14:48:39;;;;;;;2.78;1.27;;;25.10;50.80;;;;;;10133431;29;20061;-79
2022/11/14 14:53:53;;;;;;;3.03;1.50;;;23.80;52.30;;;;;;10133266;29;20079;-80
2022/11/14 14:58:56;;;;;;;3.95;1.65;;;22.20;55.70;;;;;;10175079;29;20061;-79
2022/11/14 15:04:03;;;;;;;3.90;1.52;;;21.00;58.10;;;;;;10217392;29;20114;-78
2022/11/14 15:09:11;;;;;;;4.13;1.60;;;20.50;59.80;;;;;;10224791;29;20556;-78
2022/11/14 15:14:17;;;;;;;3.80;1.90;;;20.10;61.00;;;;;;10196718;29;20080;-78
2022/11/14 15:19:23;;;;;;;4.70;1.50;;;19.60;61.40;;;;;;10191691;29;20052;-77
2022/11/14 15:24:25;;;;;;;3.70;1.70;;;18.70;63.60;;;;;;10173427;29;20080;-76
2022/11/14 15:29:30;;;;;;;7.82;3.40;;;18.00;65.60;;;;;;10210045;29;20651;-79
2022/11/14 15:34:34;;;;;;;4.25;1.90;;;17.50;67.60;;;;;;10209857;29;20114;-79
2022/11/14 15:39:37;;;;;;;4.10;1.70;;;16.80;69.80;;;;;;10200096;29;20059;-79
2022/11/14 15:44:41;;;;;;;3.75;1.60;;;16.10;72.90;;;;;;10176623;29;20123;-77
2022/11/14 15:49:58;;;;;;;5.65;1.83;;;15.70;74.80;;;;;;10171294;29;20048;-76
2022/11/14 15:55:00;;;;;;;4.90;2.20;;;15.60;76.40;;;;;;10141539;29;20056;-79
2022/11/14 16:00:04;;;;;;;4.15;1.80;;;15.20;78.70;;;;;;10141456;29;20469;-78
2022/11/14 16:05:11;;;;;;;4.10;1.85;;;15.10;80.50;;;;;;10170852;29;20063;-77
2022/11/14 16:10:16;;;;;;;5.38;1.90;;;14.80;82.60;;;;;;10172539;29;20048;-77
2022/11/14 16:15:21;;;;;;;4.35;2.00;;;14.40;85.60;;;;;;10168019;29;20091;-77
2022/11/14 16:20:25;;;;;;;4.75;2.17;;;14.40;88.00;;;;;;10155361;29;20055;-77
2022/11/14 16:25:32;;;;;;;4.93;2.30;;;14.10;90.20;;;;;;10158514;29;20087;-79
2022/11/14 16:30:36;;;;;;;4.35;2.05;;;13.70;92.20;;;;;;10157069;29;20052;-79
2022/11/14 16:35:37;;;;;;;5.07;2.13;;;13.60;93.20;;;;;;10171087;29;20080;-77
2022/11/14 16:40:44;;;;;;;4.65;1.85;;;13.60;93.70;;;;;;10166426;29;20052;-78
2022/11/14 16:45:48;;;;;;;3.90;1.98;;;13.50;94.40;;;;;;10168434;29;20062;-79
2022/11/14 16:50:50;;;;;;;5.57;2.22;;;13.30;95.10;;;;;;10165691;29;20572;-79
2022/11/14 16:55:52;;;;;;;4.25;2.00;;;13.30;95.70;;;;;;10146944;29;20108;-80
2022/11/14 17:00:55;;;;;;;4.40;1.90;;;13.10;96.30;;;;;;10186136;29;20103;-79
2022/11/14 17:05:57;;;;;;;4.20;2.30;;;13.00;96.80;;;;;;10182500;29;20063;-77
2022/11/14 17:10:59;;;;;;;4.88;2.13;;;13.00;97.20;;;;;;10153062;29;20056;-77
2022/11/14 17:16:03;;;;;;;4.80;2.30;;;12.90;97.50;;;;;;10174514;29;20108;-77
2022/11/14 17:21:06;;;;;;;5.95;2.40;;;12.80;98.00;;;;;;10167053;29;20048;-80
2022/11/14 17:26:13;;;;;;;5.53;2.15;;;12.70;98.60;;;;;;10178330;29;20058;-78
2022/11/14 17:31:16;;;;;;;5.30;2.35;;;12.60;98.90;;;;;;10174076;29;20466;-76
2022/11/14 17:36:18;;;;;;;6.90;2.42;;;12.50;99.30;;;;;;10174228;29;20112;-76
2022/11/14 17:41:20;;;;;;;6.30;2.83;;;12.40;99.40;;;;;;10176590;29;20265;-78
2022/11/14 17:46:24;;;;;;;6.13;2.78;;;12.50;99.30;;;;;;10176178;29;20051;-78
2022/11/14 17:51:26;;;;;;;6.50;3.28;;;12.50;99.30;;;;;;10152348;29;20104;-78
2022/11/14 17:56:28;;;;;;;4.82;2.30;;;12.50;99.30;;;;;;10164674;29;20103;-77
2022/11/14 18:01:31;;;;;;;5.60;2.40;;;12.50;99.30;;;;;;10173190;29;20100;-77
2022/11/14 18:06:33;;;;;;;6.70;2.45;;;12.50;99.40;;;;;;10168515;29;20051;-77
2022/11/14 18:11:36;;;;;;;6.18;2.80;;;12.50;99.50;;;;;;10174365;29;20079;-79
2022/11/14 18:16:39;;;;;;;5.22;2.70;;;12.50;99.30;;;;;;10171178;29;20048;-79
2022/11/14 18:21:42;;;;;;;4.85;2.70;;;12.50;99.40;;;;;;10174026;29;20044;-80
2022/11/14 18:26:43;;;;;;;6.82;2.65;;;12.50;99.40;;;;;;10173105;29;20052;-78
2022/11/14 18:31:47;;;;;;;5.28;2.80;;;12.50;99.60;;;;;;10173260;29;20192;-80
2022/11/14 18:36:49;;;;;;;8.80;3.50;;;12.40;99.70;;;;;;10160735;29;20072;-78
2022/11/14 18:41:51;;;;;;;9.02;4.13;;;12.30;99.90;;;;;;10160241;29;20057;-78
2022/11/14 18:46:54;;;;;;;7.45;3.83;;;12.20;99.90;;;;;;10163813;29;20084;-79
2022/11/14 18:51:56;;;;;;;6.78;4.10;;;12.20;99.90;;;;;;10156751;29;20075;-77
2022/11/14 18:56:59;;;;;;;9.95;6.25;;;12.10;99.90;;;;;;10170064;29;20060;-77
2022/11/14 19:02:02;;;;;;;9.98;4.85;;;12.00;99.90;;;;;;10170863;29;20163;-76
2022/11/14 19:07:04;;;;;;;9.10;5.38;;;11.90;99.90;;;;;;10169121;29;20052;-79
2022/11/14 19:12:20;;;;;;;11.15;6.57;;;12.00;99.90;;;;;;10166782;29;20084;-78
2022/11/14 19:17:23;;;;;;;9.95;6.25;;;12.00;99.90;;;;;;10143679;29;20187;-79
2022/11/14 19:22:25;;;;;;;8.20;5.18;;;11.90;99.90;;;;;;10163131;29;20098;-78
2022/11/14 19:27:27;;;;;;;8.10;4.63;;;11.70;99.90;;;;;;10172171;29;20438;-79
2022/11/14 19:32:33;;;;;;;6.47;3.72;;;11.60;99.90;;;;;;10169975;29;20088;-79
2022/11/14 19:37:34;;;;;;;6.47;3.15;;;11.50;99.90;;;;;;10186338;29;20058;-79
2022/11/14 19:42:36;;;;;;;5.55;2.80;;;11.50;99.90;;;;;;10171760;29;20206;-78
2022/11/14 19:47:40;;;;;;;4.78;2.50;;;11.60;99.90;;;;;;10163158;29;20075;-78
2022/11/14 19:52:42;;;;;;;5.70;2.63;;;11.70;99.90;;;;;;10154725;29;20052;-77
2022/11/14 19:57:43;;;;;;;7.45;3.42;;;11.60;99.90;;;;;;10154149;29;20052;-78
2022/11/14 20:02:47;;;;;;;13.20;6.68;;;11.60;99.90;;;;;;10147164;29;20614;-76
2022/11/14 20:07:50;;;;;;;6.53;3.40;;;11.40;99.90;;;;;;10156975;29;20116;-77
2022/11/14 20:12:52;;;;;;;6.80;3.67;;;11.20;99.90;;;;;;10171889;29;20079;-76
2022/11/14 20:17:55;;;;;;;6.00;3.65;;;11.30;99.90;;;;;;10165592;29;20048;-77
2022/11/14 20:22:57;;;;;;;9.13;4.72;;;11.40;99.90;;;;;;10174695;29;20044;-79
2022/11/14 20:27:59;;;;;;;9.00;4.90;;;11.20;99.90;;;;;;10170079;29;20134;-79
2022/11/14 20:33:02;;;;;;;31.55;13.45;;;11.20;99.90;;;;;;10173972;29;20059;-77
2022/11/14 20:38:05;;;;;;;13.57;6.43;;;11.20;99.90;;;;;;10181972;29;20107;-77
2022/11/14 20:43:07;;;;;;;7.22;2.90;;;11.20;99.90;;;;;;10182393;29;20080;-77
2022/11/14 20:48:10;;;;;;;7.05;3.28;;;11.20;99.90;;;;;;10156608;29;20151;-78
2022/11/14 20:53:12;;;;;;;6.03;2.80;;;11.20;99.90;;;;;;10145261;29;20080;-77
2022/11/14 20:58:15;;;;;;;5.97;2.92;;;11.10;99.90;;;;;;10168038;29;20475;-75
2022/11/14 21:03:19;;;;;;;3.80;1.90;;;11.00;99.90;;;;;;10176438;29;20063;-75
2022/11/14 21:08:22;;;;;;;5.25;2.15;;;11.00;99.90;;;;;;10180231;29;20229;-78
2022/11/14 21:18:46;;;;;;;4.82;1.98;;;11.20;99.90;;;;;;10141175;29;20057;-77
2022/11/14 21:23:48;;;;;;;4.82;1.92;;;11.30;99.90;;;;;;10170744;29;20410;-78
2022/11/14 21:28:53;;;;;;;6.05;2.10;;;11.30;99.90;;;;;;10152252;29;20148;-78
2022/11/14 21:33:58;;;;;;;8.23;3.00;;;11.30;99.90;;;;;;10172420;29;20143;-76
2022/11/14 21:39:00;;;;;;;6.72;2.80;;;11.30;99.90;;;;;;10159813;29;20100;-76
2022/11/14 21:44:03;;;;;;;6.78;3.08;;;11.10;99.90;;;;;;10169100;29;20155;-78
2022/11/14 21:49:06;;;;;;;6.75;2.60;;;10.80;99.90;;;;;;10144301;29;20092;-76
2022/11/14 21:54:09;;;;;;;5.80;2.60;;;10.60;99.90;;;;;;10165051;29;20104;-77
2022/11/14 21:59:15;;;;;;;4.57;2.15;;;10.60;99.90;;;;;;10174569;29;20112;-77
2022/11/14 22:04:18;;;;;;;8.30;2.35;;;10.80;99.90;;;;;;10143708;29;20063;-75
2022/11/14 22:09:21;;;;;;;7.20;2.63;;;10.50;99.90;;;;;;10175139;29;20056;-77
2022/11/14 22:14:23;;;;;;;7.25;2.00;;;10.40;99.90;;;;;;10140100;29;20060;-77
2022/11/14 22:19:26;;;;;;;9.10;5.03;;;10.20;99.90;;;;;;10134849;29;20052;-76
2022/11/14 22:24:28;;;;;;;10.65;6.35;;;10.30;99.90;;;;;;10165103;29;20083;-78
2022/11/14 22:29:29;;;;;;;9.93;5.80;;;10.30;99.90;;;;;;10172780;29;20163;-77
2022/11/14 22:34:33;;;;;;;9.07;5.80;;;10.30;99.90;;;;;;10141014;29;20084;-76
2022/11/14 22:39:34;;;;;;;9.63;5.65;;;10.20;99.90;;;;;;10147655;29;20119;-76
2022/11/14 22:44:36;;;;;;;7.60;5.00;;;10.30;99.90;;;;;;10173922;29;20048;-77
2022/11/14 22:49:40;;;;;;;6.60;3.65;;;10.30;99.90;;;;;;10173300;29;20048;-76
2022/11/14 22:54:44;;;;;;;5.20;2.40;;;10.30;99.90;;;;;;10150878;29;20045;-77
2022/11/14 22:59:45;;;;;;;6.93;2.47;;;10.10;99.90;;;;;;10148924;29;20099;-79
